createdAt,value
2018-08-17T00:04:30.878Z,77.10
2018-08-17T00:09:34.264Z,78.30
2018-08-17T00:19:40.636Z,79.90
2018-08-17T00:24:44.001Z,80.40
2018-08-17T00:29:47.272Z,82.40
2018-08-17T00:34:50.626Z,80.20
2018-08-17T00:39:53.893Z,78.90
2018-08-17T00:44:57.163Z,80.10
2018-08-17T00:50:00.670Z,81.60
2018-08-17T00:55:04.157Z,80.60
2018-08-17T01:00:07.560Z,79.00
2018-08-17T01:05:11.100Z,80.10
2018-08-17T01:10:14.386Z,79.30
2018-08-17T01:15:17.649Z,82.00
2018-08-17T01:20:21.082Z,80.60
2018-08-17T01:25:24.353Z,81.20
2018-08-17T01:30:27.740Z,81.80
2018-08-17T01:35:31.037Z,83.60
2018-08-17T01:40:34.333Z,84.20
2018-08-17T01:45:37.674Z,83.90
2018-08-17T01:50:41.049Z,84.00
2018-08-17T02:00:47.358Z,83.50
2018-08-17T02:05:50.625Z,84.40
2018-08-17T02:10:53.978Z,85.70
2018-08-17T02:15:57.262Z,86.10
2018-08-17T02:21:00.559Z,86.50
2018-08-17T02:26:03.886Z,86.40
2018-08-17T02:31:07.197Z,86.00
2018-08-17T02:41:13.642Z,85.10
2018-08-17T02:46:17.059Z,85.10
2018-08-17T02:51:20.332Z,84.90
2018-08-17T02:56:23.633Z,85.00
2018-08-17T03:01:27.168Z,84.80
2018-08-17T03:06:30.473Z,86.40
2018-08-17T03:11:33.755Z,89.30
2018-08-17T03:16:37.043Z,87.10
2018-08-17T03:21:40.339Z,86.90
2018-08-17T03:26:43.619Z,86.70
2018-08-17T03:31:46.916Z,86.60
2018-08-17T03:36:50.420Z,87.80
2018-08-17T03:41:53.756Z,88.20
2018-08-17T03:46:57.138Z,88.20
2018-08-17T03:52:00.599Z,87.40
2018-08-17T03:57:04.204Z,88.00
2018-08-17T04:02:07.924Z,87.90
2018-08-17T04:07:11.312Z,87.20
2018-08-17T04:12:14.783Z,86.60
2018-08-17T04:17:18.075Z,89.20
2018-08-17T04:22:21.348Z,87.50
2018-08-17T04:27:24.829Z,88.30
2018-08-17T04:32:28.120Z,89.50
2018-08-17T04:37:31.425Z,89.80
2018-08-17T04:42:35.416Z,89.50
2018-08-17T04:47:38.769Z,89.80
2018-08-17T04:52:42.053Z,89.30
2018-08-17T04:57:45.570Z,89.90
2018-08-17T05:02:48.881Z,90.10
2018-08-17T05:07:52.152Z,89.60
2018-08-17T05:12:55.437Z,89.70
2018-08-17T05:17:58.732Z,90.00
2018-08-17T05:23:02.111Z,90.00
2018-08-17T05:28:05.622Z,89.80
2018-08-17T05:33:08.999Z,90.30
2018-08-17T05:38:12.426Z,89.50
2018-08-17T05:43:15.708Z,89.50
2018-08-17T05:48:19.160Z,89.20
2018-08-17T05:53:22.434Z,89.50
2018-08-17T05:58:25.853Z,89.10
2018-08-17T06:03:29.133Z,89.50
2018-08-17T06:08:32.618Z,87.80
2018-08-17T06:13:35.898Z,87.70
2018-08-17T06:18:39.466Z,86.80
2018-08-17T06:23:42.765Z,86.50
2018-08-17T06:28:46.193Z,85.90
2018-08-17T06:33:49.490Z,85.70
2018-08-17T06:38:52.964Z,84.90
2018-08-17T06:43:56.369Z,84.40
2018-08-17T06:48:59.802Z,83.50
2018-08-17T06:54:03.186Z,82.80
2018-08-17T06:59:06.577Z,82.00
2018-08-17T07:09:13.218Z,79.90
2018-08-17T07:14:16.635Z,77.40
2018-08-17T07:19:19.918Z,77.30
2018-08-17T07:24:23.208Z,76.50
2018-08-17T07:29:26.558Z,75.00
2018-08-17T07:34:30.013Z,74.70
2018-08-17T07:39:33.349Z,72.20
2018-08-17T07:44:36.634Z,71.80
2018-08-17T07:49:39.893Z,69.60
2018-08-17T07:54:43.194Z,71.00
2018-08-17T07:59:46.730Z,68.10
2018-08-17T08:04:50.036Z,66.20
2018-08-17T08:09:53.548Z,66.40
2018-08-17T08:14:57.002Z,64.30
2018-08-17T08:20:12.008Z,63.60
2018-08-17T08:25:15.293Z,61.60
2018-08-17T08:30:18.632Z,60.20
2018-08-17T08:35:22.041Z,57.90
2018-08-17T08:40:25.548Z,54.70
2018-08-17T08:45:28.949Z,55.70
2018-08-17T08:50:32.348Z,53.80
2018-08-17T08:55:35.879Z,53.60
2018-08-17T09:00:39.364Z,50.80
2018-08-17T09:05:42.665Z,50.80
2018-08-17T09:10:46.005Z,51.50
2018-08-17T09:15:49.516Z,50.80
2018-08-17T09:20:52.891Z,49.10
2018-08-17T09:25:56.322Z,47.60
2018-08-17T09:30:59.800Z,48.30
2018-08-17T09:41:06.695Z,48.10
2018-08-17T09:46:10.254Z,45.00
2018-08-17T09:51:13.737Z,44.80
2018-08-17T09:56:17.063Z,45.80
2018-08-17T10:01:25.653Z,45.60
2018-08-17T10:06:35.033Z,44.50
2018-08-17T10:11:38.316Z,44.40
2018-08-17T10:16:41.695Z,44.20
2018-08-17T10:21:51.951Z,43.70
2018-08-17T10:26:55.443Z,43.40
2018-08-17T10:31:58.879Z,43.20
2018-08-17T10:37:02.273Z,42.70
2018-08-17T10:42:05.616Z,42.40
2018-08-17T10:47:09.055Z,43.40
2018-08-17T10:52:12.385Z,42.90
2018-08-17T10:57:15.787Z,43.80
2018-08-17T11:02:19.337Z,44.00
2018-08-17T11:07:26.934Z,44.80
2018-08-17T11:12:30.236Z,43.80
2018-08-17T11:17:33.537Z,43.00
2018-08-17T11:22:37.238Z,42.30
2018-08-17T11:27:40.574Z,41.60
2018-08-17T11:37:47.060Z,40.40
2018-08-17T11:42:51.073Z,40.10
2018-08-17T11:47:55.247Z,39.80
2018-08-17T11:52:59.458Z,38.60
2018-08-17T11:58:02.906Z,37.80
2018-08-17T12:03:07.810Z,38.60
2018-08-17T12:08:11.311Z,37.20
2018-08-17T12:13:17.739Z,37.40
2018-08-17T12:18:21.142Z,37.40
2018-08-17T12:23:24.693Z,36.70
2018-08-17T12:28:29.100Z,36.10
2018-08-17T12:33:32.633Z,36.40
2018-08-17T12:38:36.089Z,36.70
2018-08-17T12:43:40.057Z,36.10
2018-08-17T12:48:43.563Z,37.60
2018-08-17T12:53:47.106Z,37.90
2018-08-17T12:58:50.527Z,37.10
2018-08-17T13:03:53.864Z,35.20
2018-08-17T13:08:57.205Z,36.20
2018-08-17T13:14:06.833Z,33.90
2018-08-17T13:19:10.425Z,34.70
2018-08-17T13:24:14.558Z,35.10
2018-08-17T13:29:17.916Z,34.60
2018-08-17T13:34:21.254Z,33.40
2018-08-17T13:39:24.781Z,32.60
2018-08-17T13:44:28.056Z,33.40
2018-08-17T13:49:31.482Z,32.90
2018-08-17T13:54:34.884Z,32.60
2018-08-17T13:59:38.164Z,32.90
2018-08-17T14:04:41.477Z,31.60
2018-08-17T14:09:44.775Z,32.00
2018-08-17T14:14:48.044Z,31.20
2018-08-17T14:19:51.425Z,31.00
2018-08-17T14:24:54.755Z,31.70
2018-08-17T14:29:58.149Z,29.30
2018-08-17T14:35:01.621Z,30.60
2018-08-17T14:40:05.108Z,30.60
2018-08-17T14:45:09.151Z,30.20
2018-08-17T14:50:13.548Z,30.70
2018-08-17T14:55:16.846Z,30.10
2018-08-17T15:00:20.318Z,30.00
2018-08-17T15:05:23.621Z,30.00
2018-08-17T15:10:26.906Z,28.90
2018-08-17T15:15:30.322Z,28.80
2018-08-17T15:20:33.726Z,29.30
2018-08-17T15:25:37.717Z,28.30
2018-08-17T15:30:41.146Z,28.70
2018-08-17T15:35:44.449Z,27.20
2018-08-17T15:40:47.802Z,28.30
2018-08-17T15:45:51.108Z,28.00
2018-08-17T15:50:54.421Z,28.70
2018-08-17T15:55:57.971Z,27.70
2018-08-17T16:01:01.482Z,27.70
2018-08-17T16:06:04.829Z,29.00
2018-08-17T16:11:08.813Z,28.40
2018-08-17T16:16:12.192Z,28.00
2018-08-17T16:26:18.585Z,28.30
2018-08-17T16:31:21.873Z,28.00
2018-08-17T16:36:25.190Z,28.20
2018-08-17T16:41:28.461Z,28.90
2018-08-17T16:46:31.877Z,28.30
2018-08-17T16:51:35.317Z,29.10
2018-08-17T16:56:38.658Z,29.10
2018-08-17T17:01:42.031Z,29.00
2018-08-17T17:06:45.655Z,29.60
2018-08-17T17:11:49.341Z,29.50
2018-08-17T17:16:52.720Z,29.70
2018-08-17T17:21:56.003Z,29.60
2018-08-17T17:26:59.410Z,29.90
2018-08-17T17:32:02.914Z,30.10
2018-08-17T17:37:06.208Z,30.60
2018-08-17T17:42:09.508Z,31.40
2018-08-17T17:47:12.835Z,32.10
2018-08-17T17:52:16.155Z,33.20
2018-08-17T17:57:19.549Z,33.50
2018-08-17T18:02:22.842Z,34.00
2018-08-17T18:07:34.074Z,36.10
2018-08-17T18:12:37.342Z,37.50
2018-08-17T18:17:41.171Z,38.90
2018-08-17T18:22:44.534Z,40.60
2018-08-17T18:27:48.913Z,42.50
2018-08-17T18:32:52.190Z,43.20
2018-08-17T18:42:58.621Z,42.30
2018-08-17T18:48:02.066Z,45.00
2018-08-17T18:53:05.366Z,46.50
2018-08-17T18:58:08.653Z,47.10
2018-08-17T19:03:12.094Z,49.90
2018-08-17T19:08:15.432Z,48.70
2018-08-17T19:13:18.912Z,48.70
2018-08-17T19:18:22.866Z,46.90
2018-08-17T19:23:26.218Z,48.30
2018-08-17T19:28:29.519Z,46.80
2018-08-17T19:33:32.828Z,46.70
2018-08-17T19:38:40.362Z,47.10
2018-08-17T19:43:43.678Z,47.80
2018-08-17T19:48:46.983Z,48.80
2018-08-17T19:53:50.318Z,50.20
2018-08-17T19:58:53.692Z,48.90
2018-08-17T20:03:57.046Z,49.10
2018-08-17T20:09:00.461Z,50.40
2018-08-17T20:14:04.125Z,52.00
2018-08-17T20:19:07.663Z,53.60
2018-08-17T20:24:11.033Z,52.60
2018-08-17T20:29:14.802Z,53.20
2018-08-17T20:34:18.077Z,53.20
2018-08-17T20:39:21.496Z,52.70
2018-08-17T20:44:24.797Z,54.20
2018-08-17T20:49:28.137Z,56.70
2018-08-17T20:54:32.044Z,57.10
2018-08-17T20:59:35.375Z,55.30
2018-08-17T21:04:38.949Z,57.40
2018-08-17T21:09:42.229Z,56.10
2018-08-17T21:14:45.513Z,57.30
2018-08-17T21:19:48.818Z,56.10
2018-08-17T21:24:52.177Z,55.70
2018-08-17T21:29:55.434Z,57.30
2018-08-17T21:34:58.849Z,57.30
2018-08-17T21:40:02.108Z,56.70
2018-08-17T21:45:05.685Z,56.60
2018-08-17T21:50:13.309Z,57.00
2018-08-17T21:55:16.640Z,56.70
2018-08-17T22:00:27.631Z,57.00
2018-08-17T22:05:33.088Z,58.10
2018-08-17T22:10:36.378Z,58.30
2018-08-17T22:15:41.211Z,60.90
2018-08-17T22:20:44.698Z,59.60
2018-08-17T22:25:48.119Z,59.40
2018-08-17T22:30:51.391Z,60.50
2018-08-17T22:35:54.990Z,60.60
2018-08-17T22:40:58.177Z,61.10
2018-08-17T22:46:01.524Z,60.50
2018-08-17T22:51:04.902Z,60.20
2018-08-17T22:56:08.273Z,61.90
2018-08-17T23:01:11.645Z,62.20
2018-08-17T23:06:14.958Z,62.20
2018-08-17T23:11:32.704Z,61.90
2018-08-17T23:16:36.126Z,62.60
2018-08-17T23:21:39.771Z,61.90
2018-08-17T23:26:43.051Z,63.00
2018-08-17T23:31:46.525Z,64.50
2018-08-17T23:36:49.847Z,66.20
2018-08-17T23:41:53.134Z,69.20
2018-08-17T23:46:56.511Z,71.20
2018-08-17T23:51:59.824Z,72.50
2018-08-17T23:57:03.232Z,72.10
